sensor_id;sensor_type;location;lat;lon;timestamp;P1;durP1;ratioP1;P2;durP2;ratioP2
40290;SDS011;26000;48.304;13.626;2022-07-11T00:00:05;1.70;;;1.20;;
40290;SDS011;26000;48.304;13.626;2022-07-11T00:02:33;5.32;;;1.20;;
40290;SDS011;26000;48.304;13.626;2022-07-11T00:04:59;1.10;;;1.00;;
40290;SDS011;26000;48.304;13.626;2022-07-11T00:07:26;2.28;;;0.98;;
40290;SDS011;26000;48.304;13.626;2022-07-11T00:09:52;2.47;;;1.25;;
40290;SDS011;26000;48.304;13.626;2022-07-11T00:12:18;4.40;;;1.08;;
40290;SDS011;26000;48.304;13.626;2022-07-11T00:14:46;1.85;;;1.10;;
40290;SDS011;26000;48.304;13.626;2022-07-11T00:17:13;1.50;;;1.10;;
40290;SDS011;26000;48.304;13.626;2022-07-11T00:19:39;2.35;;;1.30;;
40290;SDS011;26000;48.304;13.626;2022-07-11T00:22:05;1.75;;;1.20;;
40290;SDS011;26000;48.304;13.626;2022-07-11T00:24:31;1.58;;;1.20;;
40290;SDS011;26000;48.304;13.626;2022-07-11T00:26:58;2.15;;;1.23;;
40290;SDS011;26000;48.304;13.626;2022-07-11T00:29:23;1.75;;;1.30;;
40290;SDS011;26000;48.304;13.626;2022-07-11T00:31:49;1.33;;;1.10;;
40290;SDS011;26000;48.304;13.626;2022-07-11T00:34:15;4.63;;;1.45;;
40290;SDS011;26000;48.304;13.626;2022-07-11T00:36:42;2.47;;;1.20;;
40290;SDS011;26000;48.304;13.626;2022-07-11T00:39:08;3.28;;;1.10;;
40290;SDS011;26000;48.304;13.626;2022-07-11T00:41:34;3.13;;;1.17;;
40290;SDS011;26000;48.304;13.626;2022-07-11T00:44:00;3.47;;;1.23;;
40290;SDS011;26000;48.304;13.626;2022-07-11T00:46:27;2.92;;;1.35;;
40290;SDS011;26000;48.304;13.626;2022-07-11T00:48:54;5.45;;;1.40;;
40290;SDS011;26000;48.304;13.626;2022-07-11T00:51:20;3.60;;;1.20;;
40290;SDS011;26000;48.304;13.626;2022-07-11T00:53:48;3.05;;;1.20;;
40290;SDS011;26000;48.304;13.626;2022-07-11T00:56:16;4.32;;;1.20;;
40290;SDS011;26000;48.304;13.626;2022-07-11T00:58:50;1.85;;;1.10;;
40290;SDS011;26000;48.304;13.626;2022-07-11T01:01:16;5.55;;;1.45;;
40290;SDS011;26000;48.304;13.626;2022-07-11T01:03:43;3.05;;;1.20;;
40290;SDS011;26000;48.304;13.626;2022-07-11T01:06:08;1.20;;;1.05;;
40290;SDS011;26000;48.304;13.626;2022-07-11T01:08:34;2.08;;;1.40;;
40290;SDS011;26000;48.304;13.626;2022-07-11T01:11:02;1.10;;;1.00;;
40290;SDS011;26000;48.304;13.626;2022-07-11T01:13:29;2.05;;;1.38;;
40290;SDS011;26000;48.304;13.626;2022-07-11T01:16:15;6.85;;;1.40;;
40290;SDS011;26000;48.304;13.626;2022-07-11T01:18:46;4.05;;;1.30;;
40290;SDS011;26000;48.304;13.626;2022-07-11T01:23:43;2.90;;;1.30;;
40290;SDS011;26000;48.304;13.626;2022-07-11T01:26:09;3.22;;;1.20;;
40290;SDS011;26000;48.304;13.626;2022-07-11T01:28:35;5.53;;;1.23;;
40290;SDS011;26000;48.304;13.626;2022-07-11T01:31:01;1.63;;;1.33;;
40290;SDS011;26000;48.304;13.626;2022-07-11T01:33:26;2.25;;;1.20;;
40290;SDS011;26000;48.304;13.626;2022-07-11T01:35:52;2.55;;;1.20;;
40290;SDS011;26000;48.304;13.626;2022-07-11T01:38:17;1.95;;;1.20;;
40290;SDS011;26000;48.304;13.626;2022-07-11T01:40:43;2.80;;;1.58;;
40290;SDS011;26000;48.304;13.626;2022-07-11T01:43:09;1.85;;;1.30;;
40290;SDS011;26000;48.304;13.626;2022-07-11T01:45:34;1.67;;;1.58;;
40290;SDS011;26000;48.304;13.626;2022-07-11T01:48:00;1.98;;;1.60;;
40290;SDS011;26000;48.304;13.626;2022-07-11T01:50:25;1.40;;;1.25;;
40290;SDS011;26000;48.304;13.626;2022-07-11T01:52:51;1.73;;;1.30;;
40290;SDS011;26000;48.304;13.626;2022-07-11T01:55:17;3.15;;;1.50;;
40290;SDS011;26000;48.304;13.626;2022-07-11T01:57:42;1.70;;;1.35;;
40290;SDS011;26000;48.304;13.626;2022-07-11T02:00:08;2.22;;;1.50;;
40290;SDS011;26000;48.304;13.626;2022-07-11T02:02:36;1.88;;;1.42;;
40290;SDS011;26000;48.304;13.626;2022-07-11T02:05:02;3.10;;;1.40;;
40290;SDS011;26000;48.304;13.626;2022-07-11T02:07:28;2.60;;;1.50;;
40290;SDS011;26000;48.304;13.626;2022-07-11T02:10:12;1.48;;;1.20;;
40290;SDS011;26000;48.304;13.626;2022-07-11T02:12:38;3.53;;;1.52;;
40290;SDS011;26000;48.304;13.626;2022-07-11T02:15:04;2.97;;;1.58;;
40290;SDS011;26000;48.304;13.626;2022-07-11T02:17:30;2.35;;;1.52;;
40290;SDS011;26000;48.304;13.626;2022-07-11T02:19:56;1.63;;;1.40;;
40290;SDS011;26000;48.304;13.626;2022-07-11T02:22:22;2.78;;;1.70;;
40290;SDS011;26000;48.304;13.626;2022-07-11T02:24:47;2.88;;;1.38;;
40290;SDS011;26000;48.304;13.626;2022-07-11T02:27:13;1.50;;;1.40;;
40290;SDS011;26000;48.304;13.626;2022-07-11T02:29:39;1.50;;;1.40;;
40290;SDS011;26000;48.304;13.626;2022-07-11T02:32:04;2.42;;;1.48;;
40290;SDS011;26000;48.304;13.626;2022-07-11T02:34:30;3.88;;;1.50;;
40290;SDS011;26000;48.304;13.626;2022-07-11T02:36:56;2.50;;;1.75;;
40290;SDS011;26000;48.304;13.626;2022-07-11T02:39:21;2.22;;;1.60;;
40290;SDS011;26000;48.304;13.626;2022-07-11T02:41:47;2.15;;;1.70;;
40290;SDS011;26000;48.304;13.626;2022-07-11T02:44:12;3.08;;;1.73;;
40290;SDS011;26000;48.304;13.626;2022-07-11T02:46:38;2.38;;;1.80;;
40290;SDS011;26000;48.304;13.626;2022-07-11T02:49:04;2.80;;;1.80;;
40290;SDS011;26000;48.304;13.626;2022-07-11T02:51:30;2.03;;;1.60;;
40290;SDS011;26000;48.304;13.626;2022-07-11T02:53:55;2.25;;;1.50;;
40290;SDS011;26000;48.304;13.626;2022-07-11T02:56:21;1.70;;;1.50;;
40290;SDS011;26000;48.304;13.626;2022-07-11T02:58:47;2.55;;;1.50;;
40290;SDS011;26000;48.304;13.626;2022-07-11T03:01:12;2.28;;;1.55;;
40290;SDS011;26000;48.304;13.626;2022-07-11T03:03:38;2.85;;;1.50;;
40290;SDS011;26000;48.304;13.626;2022-07-11T03:06:03;3.83;;;1.63;;
40290;SDS011;26000;48.304;13.626;2022-07-11T03:08:29;7.03;;;2.08;;
40290;SDS011;26000;48.304;13.626;2022-07-11T03:10:55;3.40;;;1.70;;
40290;SDS011;26000;48.304;13.626;2022-07-11T03:13:21;1.83;;;1.52;;
40290;SDS011;26000;48.304;13.626;2022-07-11T03:15:47;3.15;;;1.80;;
40290;SDS011;26000;48.304;13.626;2022-07-11T03:18:12;2.28;;;1.63;;
40290;SDS011;26000;48.304;13.626;2022-07-11T03:20:38;3.08;;;1.67;;
40290;SDS011;26000;48.304;13.626;2022-07-11T03:23:04;2.65;;;1.63;;
40290;SDS011;26000;48.304;13.626;2022-07-11T03:25:29;2.65;;;1.70;;
40290;SDS011;26000;48.304;13.626;2022-07-11T03:27:55;6.43;;;2.60;;
40290;SDS011;26000;48.304;13.626;2022-07-11T03:30:21;4.63;;;2.83;;
40290;SDS011;26000;48.304;13.626;2022-07-11T03:32:46;6.43;;;2.25;;
40290;SDS011;26000;48.304;13.626;2022-07-11T03:35:12;2.80;;;1.98;;
40290;SDS011;26000;48.304;13.626;2022-07-11T03:37:56;2.55;;;1.67;;
40290;SDS011;26000;48.304;13.626;2022-07-11T03:40:22;4.57;;;1.90;;
40290;SDS011;26000;48.304;13.626;2022-07-11T03:42:47;7.57;;;1.90;;
40290;SDS011;26000;48.304;13.626;2022-07-11T03:45:13;2.40;;;1.95;;
40290;SDS011;26000;48.304;13.626;2022-07-11T03:47:39;2.53;;;2.13;;
40290;SDS011;26000;48.304;13.626;2022-07-11T03:50:04;8.63;;;5.20;;
40290;SDS011;26000;48.304;13.626;2022-07-11T03:52:31;13.48;;;6.18;;
40290;SDS011;26000;48.304;13.626;2022-07-11T03:54:57;9.25;;;4.70;;
40290;SDS011;26000;48.304;13.626;2022-07-11T03:57:23;7.13;;;4.40;;
40290;SDS011;26000;48.304;13.626;2022-07-11T03:59:48;4.45;;;3.30;;
40290;SDS011;26000;48.304;13.626;2022-07-11T04:02:14;5.35;;;3.63;;
40290;SDS011;26000;48.304;13.626;2022-07-11T04:04:40;7.88;;;2.63;;
40290;SDS011;26000;48.304;13.626;2022-07-11T04:07:05;3.63;;;2.10;;
40290;SDS011;26000;48.304;13.626;2022-07-11T04:09:31;2.78;;;1.83;;
40290;SDS011;26000;48.304;13.626;2022-07-11T04:11:57;5.43;;;2.13;;
40290;SDS011;26000;48.304;13.626;2022-07-11T04:14:22;2.20;;;1.77;;
40290;SDS011;26000;48.304;13.626;2022-07-11T04:16:49;2.05;;;1.67;;
40290;SDS011;26000;48.304;13.626;2022-07-11T04:19:16;2.45;;;1.58;;
40290;SDS011;26000;48.304;13.626;2022-07-11T04:21:41;6.55;;;2.15;;
40290;SDS011;26000;48.304;13.626;2022-07-11T04:24:07;3.60;;;1.65;;
40290;SDS011;26000;48.304;13.626;2022-07-11T04:26:33;1.67;;;1.58;;
40290;SDS011;26000;48.304;13.626;2022-07-11T04:28:58;2.88;;;1.80;;
40290;SDS011;26000;48.304;13.626;2022-07-11T04:31:24;2.92;;;1.80;;
40290;SDS011;26000;48.304;13.626;2022-07-11T04:33:50;1.92;;;1.55;;
40290;SDS011;26000;48.304;13.626;2022-07-11T04:36:16;4.32;;;1.55;;
40290;SDS011;26000;48.304;13.626;2022-07-11T04:38:42;3.38;;;1.90;;
40290;SDS011;26000;48.304;13.626;2022-07-11T04:41:09;3.17;;;1.85;;
40290;SDS011;26000;48.304;13.626;2022-07-11T04:43:35;4.10;;;1.90;;
40290;SDS011;26000;48.304;13.626;2022-07-11T04:46:02;4.88;;;1.65;;
40290;SDS011;26000;48.304;13.626;2022-07-11T04:48:30;3.33;;;1.98;;
40290;SDS011;26000;48.304;13.626;2022-07-11T04:50:56;2.47;;;1.60;;
40290;SDS011;26000;48.304;13.626;2022-07-11T04:53:22;3.88;;;1.92;;
40290;SDS011;26000;48.304;13.626;2022-07-11T04:55:48;2.70;;;1.90;;
40290;SDS011;26000;48.304;13.626;2022-07-11T04:58:14;2.38;;;1.73;;
40290;SDS011;26000;48.304;13.626;2022-07-11T05:00:40;4.50;;;2.00;;
40290;SDS011;26000;48.304;13.626;2022-07-11T05:03:05;3.85;;;1.88;;
40290;SDS011;26000;48.304;13.626;2022-07-11T05:05:31;2.38;;;2.10;;
40290;SDS011;26000;48.304;13.626;2022-07-11T05:07:57;3.65;;;2.35;;
40290;SDS011;26000;48.304;13.626;2022-07-11T05:10:23;3.10;;;2.00;;
40290;SDS011;26000;48.304;13.626;2022-07-11T05:12:49;5.47;;;1.80;;
40290;SDS011;26000;48.304;13.626;2022-07-11T05:15:14;2.10;;;1.90;;
40290;SDS011;26000;48.304;13.626;2022-07-11T05:17:40;3.03;;;2.10;;
40290;SDS011;26000;48.304;13.626;2022-07-11T05:20:06;3.70;;;1.88;;
40290;SDS011;26000;48.304;13.626;2022-07-11T05:22:32;2.85;;;2.25;;
40290;SDS011;26000;48.304;13.626;2022-07-11T05:24:58;5.60;;;2.03;;
40290;SDS011;26000;48.304;13.626;2022-07-11T05:27:24;3.00;;;2.15;;
40290;SDS011;26000;48.304;13.626;2022-07-11T05:29:49;3.28;;;1.90;;
40290;SDS011;26000;48.304;13.626;2022-07-11T05:32:15;1.70;;;1.60;;
40290;SDS011;26000;48.304;13.626;2022-07-11T05:34:41;3.75;;;2.33;;
40290;SDS011;26000;48.304;13.626;2022-07-11T05:37:06;3.00;;;2.00;;
40290;SDS011;26000;48.304;13.626;2022-07-11T05:39:32;6.25;;;2.13;;
40290;SDS011;26000;48.304;13.626;2022-07-11T05:41:58;2.83;;;2.05;;
40290;SDS011;26000;48.304;13.626;2022-07-11T05:44:24;3.92;;;2.08;;
40290;SDS011;26000;48.304;13.626;2022-07-11T05:46:49;2.97;;;1.92;;
40290;SDS011;26000;48.304;13.626;2022-07-11T05:49:15;5.85;;;2.30;;
40290;SDS011;26000;48.304;13.626;2022-07-11T05:51:41;3.08;;;2.10;;
40290;SDS011;26000;48.304;13.626;2022-07-11T05:54:06;4.22;;;2.35;;
40290;SDS011;26000;48.304;13.626;2022-07-11T05:56:32;3.75;;;1.90;;
40290;SDS011;26000;48.304;13.626;2022-07-11T05:58:58;5.10;;;2.15;;
40290;SDS011;26000;48.304;13.626;2022-07-11T06:01:24;3.42;;;1.80;;
40290;SDS011;26000;48.304;13.626;2022-07-11T06:03:51;4.75;;;1.85;;
40290;SDS011;26000;48.304;13.626;2022-07-11T06:06:17;2.08;;;1.65;;
40290;SDS011;26000;48.304;13.626;2022-07-11T06:08:43;3.08;;;1.70;;
40290;SDS011;26000;48.304;13.626;2022-07-11T06:11:13;3.33;;;2.03;;
40290;SDS011;26000;48.304;13.626;2022-07-11T06:13:40;2.45;;;1.60;;
40290;SDS011;26000;48.304;13.626;2022-07-11T06:16:07;2.50;;;1.88;;
40290;SDS011;26000;48.304;13.626;2022-07-11T06:18:34;2.28;;;1.83;;
40290;SDS011;26000;48.304;13.626;2022-07-11T06:21:00;4.45;;;2.00;;
40290;SDS011;26000;48.304;13.626;2022-07-11T06:23:26;2.03;;;1.48;;
40290;SDS011;26000;48.304;13.626;2022-07-11T06:25:52;3.30;;;1.50;;
40290;SDS011;26000;48.304;13.626;2022-07-11T06:28:18;5.57;;;1.67;;
40290;SDS011;26000;48.304;13.626;2022-07-11T06:30:43;6.70;;;1.67;;
40290;SDS011;26000;48.304;13.626;2022-07-11T06:33:09;4.13;;;1.30;;
40290;SDS011;26000;48.304;13.626;2022-07-11T06:35:34;6.03;;;1.30;;
40290;SDS011;26000;48.304;13.626;2022-07-11T06:38:00;2.50;;;1.48;;
40290;SDS011;26000;48.304;13.626;2022-07-11T06:40:26;3.85;;;1.67;;
40290;SDS011;26000;48.304;13.626;2022-07-11T06:42:51;3.60;;;1.90;;
40290;SDS011;26000;48.304;13.626;2022-07-11T06:45:17;3.75;;;1.92;;
40290;SDS011;26000;48.304;13.626;2022-07-11T06:47:43;3.75;;;1.73;;
40290;SDS011;26000;48.304;13.626;2022-07-11T06:50:09;2.70;;;1.48;;
40290;SDS011;26000;48.304;13.626;2022-07-11T06:52:34;3.20;;;1.33;;
40290;SDS011;26000;48.304;13.626;2022-07-11T06:55:00;2.50;;;1.40;;
40290;SDS011;26000;48.304;13.626;2022-07-11T06:57:26;3.67;;;1.50;;
40290;SDS011;26000;48.304;13.626;2022-07-11T06:59:52;3.33;;;1.27;;
40290;SDS011;26000;48.304;13.626;2022-07-11T07:02:18;2.65;;;1.40;;
40290;SDS011;26000;48.304;13.626;2022-07-11T07:04:43;3.78;;;1.27;;
40290;SDS011;26000;48.304;13.626;2022-07-11T07:07:09;2.97;;;1.33;;
40290;SDS011;26000;48.304;13.626;2022-07-11T07:09:35;4.35;;;1.55;;
40290;SDS011;26000;48.304;13.626;2022-07-11T07:12:00;4.15;;;1.50;;
40290;SDS011;26000;48.304;13.626;2022-07-11T07:14:26;4.50;;;1.33;;
40290;SDS011;26000;48.304;13.626;2022-07-11T07:16:52;2.25;;;1.17;;
40290;SDS011;26000;48.304;13.626;2022-07-11T07:19:17;5.70;;;1.50;;
40290;SDS011;26000;48.304;13.626;2022-07-11T07:21:43;5.20;;;1.60;;
40290;SDS011;26000;48.304;13.626;2022-07-11T07:24:09;2.00;;;1.20;;
40290;SDS011;26000;48.304;13.626;2022-07-11T07:26:35;3.15;;;1.55;;
40290;SDS011;26000;48.304;13.626;2022-07-11T07:29:00;3.55;;;1.40;;
40290;SDS011;26000;48.304;13.626;2022-07-11T07:31:26;4.47;;;1.70;;
40290;SDS011;26000;48.304;13.626;2022-07-11T07:33:52;2.13;;;1.30;;
40290;SDS011;26000;48.304;13.626;2022-07-11T07:36:18;2.85;;;1.38;;
40290;SDS011;26000;48.304;13.626;2022-07-11T07:38:44;1.65;;;1.40;;
40290;SDS011;26000;48.304;13.626;2022-07-11T07:41:12;3.80;;;1.90;;
40290;SDS011;26000;48.304;13.626;2022-07-11T07:43:38;2.97;;;1.55;;
40290;SDS011;26000;48.304;13.626;2022-07-11T07:46:04;4.03;;;1.85;;
40290;SDS011;26000;48.304;13.626;2022-07-11T07:48:30;3.42;;;1.42;;
40290;SDS011;26000;48.304;13.626;2022-07-11T07:50:55;5.78;;;1.90;;
40290;SDS011;26000;48.304;13.626;2022-07-11T07:53:21;3.30;;;1.85;;
40290;SDS011;26000;48.304;13.626;2022-07-11T07:55:47;4.85;;;1.98;;
40290;SDS011;26000;48.304;13.626;2022-07-11T07:58:14;5.95;;;1.70;;
40290;SDS011;26000;48.304;13.626;2022-07-11T08:00:40;3.95;;;1.80;;
40290;SDS011;26000;48.304;13.626;2022-07-11T08:03:24;2.58;;;1.60;;
40290;SDS011;26000;48.304;13.626;2022-07-11T08:05:50;2.58;;;1.75;;
40290;SDS011;26000;48.304;13.626;2022-07-11T08:08:15;2.58;;;1.65;;
40290;SDS011;26000;48.304;13.626;2022-07-11T08:10:41;3.08;;;1.70;;
40290;SDS011;26000;48.304;13.626;2022-07-11T08:13:07;4.95;;;1.67;;
40290;SDS011;26000;48.304;13.626;2022-07-11T08:15:33;3.45;;;1.77;;
40290;SDS011;26000;48.304;13.626;2022-07-11T08:17:58;4.57;;;1.83;;
40290;SDS011;26000;48.304;13.626;2022-07-11T08:20:24;5.38;;;1.83;;
40290;SDS011;26000;48.304;13.626;2022-07-11T08:22:50;3.30;;;1.73;;
40290;SDS011;26000;48.304;13.626;2022-07-11T08:25:15;4.82;;;1.98;;
40290;SDS011;26000;48.304;13.626;2022-07-11T08:27:41;6.25;;;2.50;;
40290;SDS011;26000;48.304;13.626;2022-07-11T08:30:07;3.20;;;1.83;;
40290;SDS011;26000;48.304;13.626;2022-07-11T08:32:34;4.63;;;1.98;;
40290;SDS011;26000;48.304;13.626;2022-07-11T08:35:03;2.78;;;1.60;;
40290;SDS011;26000;48.304;13.626;2022-07-11T08:37:29;3.75;;;1.98;;
40290;SDS011;26000;48.304;13.626;2022-07-11T08:39:55;2.45;;;1.73;;
40290;SDS011;26000;48.304;13.626;2022-07-11T08:42:20;4.85;;;1.60;;
40290;SDS011;26000;48.304;13.626;2022-07-11T08:44:54;5.05;;;2.10;;
40290;SDS011;26000;48.304;13.626;2022-07-11T08:47:21;4.03;;;1.98;;
40290;SDS011;26000;48.304;13.626;2022-07-11T08:49:47;2.63;;;2.03;;
40290;SDS011;26000;48.304;13.626;2022-07-11T08:52:14;3.10;;;1.90;;
40290;SDS011;26000;48.304;13.626;2022-07-11T08:54:41;6.57;;;1.77;;
40290;SDS011;26000;48.304;13.626;2022-07-11T08:57:06;4.15;;;2.10;;
40290;SDS011;26000;48.304;13.626;2022-07-11T08:59:33;4.68;;;1.95;;
40290;SDS011;26000;48.304;13.626;2022-07-11T09:02:02;5.82;;;2.17;;
40290;SDS011;26000;48.304;13.626;2022-07-11T09:04:28;2.88;;;1.85;;
40290;SDS011;26000;48.304;13.626;2022-07-11T09:06:55;3.80;;;1.92;;
40290;SDS011;26000;48.304;13.626;2022-07-11T09:09:21;2.67;;;1.83;;
40290;SDS011;26000;48.304;13.626;2022-07-11T09:11:47;4.18;;;2.05;;
40290;SDS011;26000;48.304;13.626;2022-07-11T09:14:28;2.70;;;1.90;;
40290;SDS011;26000;48.304;13.626;2022-07-11T09:16:55;7.72;;;2.10;;
40290;SDS011;26000;48.304;13.626;2022-07-11T09:19:25;3.75;;;2.15;;
40290;SDS011;26000;48.304;13.626;2022-07-11T09:21:56;3.03;;;1.77;;
40290;SDS011;26000;48.304;13.626;2022-07-11T09:27:40;4.13;;;2.30;;
40290;SDS011;26000;48.304;13.626;2022-07-11T09:30:21;3.78;;;2.05;;
40290;SDS011;26000;48.304;13.626;2022-07-11T09:35:24;3.30;;;2.00;;
40290;SDS011;26000;48.304;13.626;2022-07-11T09:37:58;4.75;;;2.22;;
40290;SDS011;26000;48.304;13.626;2022-07-11T09:40:26;7.28;;;2.42;;
40290;SDS011;26000;48.304;13.626;2022-07-11T09:42:53;6.55;;;2.50;;
40290;SDS011;26000;48.304;13.626;2022-07-11T09:45:20;3.65;;;1.90;;
40290;SDS011;26000;48.304;13.626;2022-07-11T09:47:50;6.43;;;2.60;;
40290;SDS011;26000;48.304;13.626;2022-07-11T09:50:18;5.95;;;2.72;;
40290;SDS011;26000;48.304;13.626;2022-07-11T09:52:57;3.88;;;2.08;;
40290;SDS011;26000;48.304;13.626;2022-07-11T09:55:26;5.57;;;2.45;;
40290;SDS011;26000;48.304;13.626;2022-07-11T09:57:52;5.13;;;2.30;;
40290;SDS011;26000;48.304;13.626;2022-07-11T10:00:18;4.57;;;2.83;;
40290;SDS011;26000;48.304;13.626;2022-07-11T10:02:44;4.68;;;2.83;;
40290;SDS011;26000;48.304;13.626;2022-07-11T10:05:10;6.07;;;2.70;;
40290;SDS011;26000;48.304;13.626;2022-07-11T10:07:36;5.00;;;3.03;;
40290;SDS011;26000;48.304;13.626;2022-07-11T10:10:03;3.80;;;2.38;;
40290;SDS011;26000;48.304;13.626;2022-07-11T10:12:30;3.67;;;2.95;;
40290;SDS011;26000;48.304;13.626;2022-07-11T10:15:08;4.22;;;2.88;;
40290;SDS011;26000;48.304;13.626;2022-07-11T10:20:10;6.13;;;2.55;;
40290;SDS011;26000;48.304;13.626;2022-07-11T10:23:09;2.83;;;2.33;;
40290;SDS011;26000;48.304;13.626;2022-07-11T10:25:58;2.05;;;1.60;;
40290;SDS011;26000;48.304;13.626;2022-07-11T10:31:20;4.65;;;1.73;;
40290;SDS011;26000;48.304;13.626;2022-07-11T10:34:09;2.53;;;1.45;;
40290;SDS011;26000;48.304;13.626;2022-07-11T10:36:40;2.38;;;1.20;;
40290;SDS011;26000;48.304;13.626;2022-07-11T10:39:23;2.92;;;1.30;;
40290;SDS011;26000;48.304;13.626;2022-07-11T10:41:56;2.83;;;1.10;;
40290;SDS011;26000;48.304;13.626;2022-07-11T10:44:22;2.03;;;1.20;;
40290;SDS011;26000;48.304;13.626;2022-07-11T10:46:49;1.77;;;1.20;;
40290;SDS011;26000;48.304;13.626;2022-07-11T10:49:17;1.08;;;0.98;;
40290;SDS011;26000;48.304;13.626;2022-07-11T10:54:23;2.42;;;1.25;;
40290;SDS011;26000;48.304;13.626;2022-07-11T11:02:24;1.60;;;1.10;;
40290;SDS011;26000;48.304;13.626;2022-07-11T11:04:51;0.93;;;0.80;;
40290;SDS011;26000;48.304;13.626;2022-07-11T11:07:37;2.53;;;1.08;;
40290;SDS011;26000;48.304;13.626;2022-07-11T11:21:22;1.20;;;1.10;;
40290;SDS011;26000;48.304;13.626;2022-07-11T11:23:43;3.10;;;1.17;;
40290;SDS011;26000;48.304;13.626;2022-07-11T11:26:18;1.73;;;1.05;;
40290;SDS011;26000;48.304;13.626;2022-07-11T11:28:55;2.05;;;1.30;;
40290;SDS011;26000;48.304;13.626;2022-07-11T11:31:22;2.40;;;1.13;;
40290;SDS011;26000;48.304;13.626;2022-07-11T11:33:48;1.77;;;1.20;;
40290;SDS011;26000;48.304;13.626;2022-07-11T11:36:17;3.05;;;1.20;;
40290;SDS011;26000;48.304;13.626;2022-07-11T11:38:46;2.65;;;1.30;;
40290;SDS011;26000;48.304;13.626;2022-07-11T11:41:25;1.92;;;1.10;;
40290;SDS011;26000;48.304;13.626;2022-07-11T11:43:53;1.63;;;1.35;;
40290;SDS011;26000;48.304;13.626;2022-07-11T11:46:23;1.85;;;1.20;;
40290;SDS011;26000;48.304;13.626;2022-07-11T11:48:55;1.60;;;1.20;;
40290;SDS011;26000;48.304;13.626;2022-07-11T11:51:23;1.45;;;1.10;;
40290;SDS011;26000;48.304;13.626;2022-07-11T11:53:52;2.88;;;1.00;;
40290;SDS011;26000;48.304;13.626;2022-07-11T11:56:20;1.80;;;1.05;;
40290;SDS011;26000;48.304;13.626;2022-07-11T11:58:48;1.52;;;1.25;;
40290;SDS011;26000;48.304;13.626;2022-07-11T12:01:25;1.55;;;1.17;;
40290;SDS011;26000;48.304;13.626;2022-07-11T12:04:05;1.75;;;1.05;;
40290;SDS011;26000;48.304;13.626;2022-07-11T12:06:34;2.03;;;1.20;;
40290;SDS011;26000;48.304;13.626;2022-07-11T12:09:18;2.23;;;1.17;;
40290;SDS011;26000;48.304;13.626;2022-07-11T12:11:50;2.03;;;1.20;;
40290;SDS011;26000;48.304;13.626;2022-07-11T12:14:34;2.00;;;1.17;;
40290;SDS011;26000;48.304;13.626;2022-07-11T12:17:00;1.52;;;1.13;;
40290;SDS011;26000;48.304;13.626;2022-07-11T12:19:31;1.25;;;1.08;;
40290;SDS011;26000;48.304;13.626;2022-07-11T12:22:02;2.53;;;1.20;;
40290;SDS011;26000;48.304;13.626;2022-07-11T12:24:30;2.90;;;1.42;;
40290;SDS011;26000;48.304;13.626;2022-07-11T12:26:57;1.10;;;1.00;;
40290;SDS011;26000;48.304;13.626;2022-07-11T12:29:23;2.17;;;1.30;;
40290;SDS011;26000;48.304;13.626;2022-07-11T12:31:54;2.30;;;1.30;;
40290;SDS011;26000;48.304;13.626;2022-07-11T12:34:21;1.65;;;1.23;;
40290;SDS011;26000;48.304;13.626;2022-07-11T12:39:31;1.55;;;1.08;;
40290;SDS011;26000;48.304;13.626;2022-07-11T12:41:59;1.88;;;1.20;;
40290;SDS011;26000;48.304;13.626;2022-07-11T12:44:26;3.05;;;1.20;;
40290;SDS011;26000;48.304;13.626;2022-07-11T12:47:12;2.35;;;1.52;;
40290;SDS011;26000;48.304;13.626;2022-07-11T12:49:39;6.28;;;1.30;;
40290;SDS011;26000;48.304;13.626;2022-07-11T12:52:09;2.53;;;1.30;;
40290;SDS011;26000;48.304;13.626;2022-07-11T12:54:36;2.13;;;1.35;;
40290;SDS011;26000;48.304;13.626;2022-07-11T12:57:02;1.52;;;1.40;;
40290;SDS011;26000;48.304;13.626;2022-07-11T12:59:28;1.90;;;1.30;;
40290;SDS011;26000;48.304;13.626;2022-07-11T13:02:00;2.53;;;1.55;;
40290;SDS011;26000;48.304;13.626;2022-07-11T13:07:34;2.17;;;1.20;;
40290;SDS011;26000;48.304;13.626;2022-07-11T13:12:46;2.03;;;1.13;;
40290;SDS011;26000;48.304;13.626;2022-07-11T13:15:13;2.75;;;1.20;;
40290;SDS011;26000;48.304;13.626;2022-07-11T13:17:46;2.25;;;1.20;;
40290;SDS011;26000;48.304;13.626;2022-07-11T13:20:13;1.45;;;1.20;;
40290;SDS011;26000;48.304;13.626;2022-07-11T13:22:47;1.30;;;1.10;;
40290;SDS011;26000;48.304;13.626;2022-07-11T13:25:15;2.42;;;1.30;;
40290;SDS011;26000;48.304;13.626;2022-07-11T13:27:43;2.65;;;1.25;;
40290;SDS011;26000;48.304;13.626;2022-07-11T13:30:11;2.75;;;1.15;;
40290;SDS011;26000;48.304;13.626;2022-07-11T13:32:41;2.13;;;1.23;;
40290;SDS011;26000;48.304;13.626;2022-07-11T13:35:08;2.63;;;1.10;;
40290;SDS011;26000;48.304;13.626;2022-07-11T13:37:34;1.08;;;0.93;;
40290;SDS011;26000;48.304;13.626;2022-07-11T13:40:04;1.40;;;0.95;;
40290;SDS011;26000;48.304;13.626;2022-07-11T13:42:30;2.85;;;1.13;;
40290;SDS011;26000;48.304;13.626;2022-07-11T13:45:00;2.13;;;1.05;;
40290;SDS011;26000;48.304;13.626;2022-07-11T13:47:26;1.52;;;1.20;;
40290;SDS011;26000;48.304;13.626;2022-07-11T13:49:52;3.20;;;0.93;;
40290;SDS011;26000;48.304;13.626;2022-07-11T13:52:18;3.25;;;1.20;;
40290;SDS011;26000;48.304;13.626;2022-07-11T13:54:43;2.20;;;1.20;;
40290;SDS011;26000;48.304;13.626;2022-07-11T13:57:09;1.50;;;1.10;;
40290;SDS011;26000;48.304;13.626;2022-07-11T13:59:35;3.13;;;1.30;;
40290;SDS011;26000;48.304;13.626;2022-07-11T14:02:01;2.45;;;1.20;;
40290;SDS011;26000;48.304;13.626;2022-07-11T14:04:27;1.75;;;1.35;;
40290;SDS011;26000;48.304;13.626;2022-07-11T14:06:53;1.83;;;1.33;;
40290;SDS011;26000;48.304;13.626;2022-07-11T14:09:19;1.65;;;1.00;;
40290;SDS011;26000;48.304;13.626;2022-07-11T14:11:45;1.35;;;0.90;;
40290;SDS011;26000;48.304;13.626;2022-07-11T14:14:11;2.05;;;1.50;;
40290;SDS011;26000;48.304;13.626;2022-07-11T14:16:37;1.13;;;1.02;;
40290;SDS011;26000;48.304;13.626;2022-07-11T14:19:03;3.13;;;1.10;;
40290;SDS011;26000;48.304;13.626;2022-07-11T14:21:35;1.50;;;1.30;;
40290;SDS011;26000;48.304;13.626;2022-07-11T14:24:01;1.98;;;1.30;;
40290;SDS011;26000;48.304;13.626;2022-07-11T14:26:27;2.28;;;1.02;;
40290;SDS011;26000;48.304;13.626;2022-07-11T14:28:53;1.10;;;1.00;;
40290;SDS011;26000;48.304;13.626;2022-07-11T14:31:19;3.45;;;1.40;;
40290;SDS011;26000;48.304;13.626;2022-07-11T14:33:47;2.50;;;1.10;;
40290;SDS011;26000;48.304;13.626;2022-07-11T14:36:14;3.40;;;1.23;;
40290;SDS011;26000;48.304;13.626;2022-07-11T14:38:39;2.60;;;1.13;;
40290;SDS011;26000;48.304;13.626;2022-07-11T14:41:05;1.55;;;1.10;;
40290;SDS011;26000;48.304;13.626;2022-07-11T14:43:31;2.13;;;0.90;;
40290;SDS011;26000;48.304;13.626;2022-07-11T14:45:57;1.30;;;0.90;;
40290;SDS011;26000;48.304;13.626;2022-07-11T14:48:23;1.35;;;0.98;;
40290;SDS011;26000;48.304;13.626;2022-07-11T14:50:49;1.70;;;1.00;;
40290;SDS011;26000;48.304;13.626;2022-07-11T14:53:14;1.05;;;0.80;;
40290;SDS011;26000;48.304;13.626;2022-07-11T14:55:40;1.10;;;0.90;;
40290;SDS011;26000;48.304;13.626;2022-07-11T14:58:05;1.10;;;1.00;;
40290;SDS011;26000;48.304;13.626;2022-07-11T15:00:31;2.15;;;0.80;;
40290;SDS011;26000;48.304;13.626;2022-07-11T15:02:57;0.80;;;0.60;;
40290;SDS011;26000;48.304;13.626;2022-07-11T15:05:42;1.17;;;0.90;;
40290;SDS011;26000;48.304;13.626;2022-07-11T15:08:08;1.13;;;0.82;;
40290;SDS011;26000;48.304;13.626;2022-07-11T15:10:52;2.30;;;0.70;;
40290;SDS011;26000;48.304;13.626;2022-07-11T15:13:37;2.60;;;0.80;;
40290;SDS011;26000;48.304;13.626;2022-07-11T15:16:02;1.13;;;0.73;;